Weather at Ninoy Aquino International Airport

Public forecast

Using degrees Celsius for public forecast. Weather courtesy of forecast.io.

Current aviation weather report (METAR) for Ninoy Aquino International Airport

Report is more than 6 hours old.

2022/11/14 15:00 (retrieved 2 years ago)

RPLL 141500Z 04003KT 360V070 9999 SCT025 28/24 Q1010 NOSIG RMK A2983

Aviation forecast (TAF) for Ninoy Aquino International Airport

Forecast is more than 12 hours old.

2023/02/22 18:00 (retrieved 1 year ago)

TAF RPLL 221700Z 2218/2324 12004KT 9999 FEW025 SCT100 TX32/2306Z TN24/2221Z TEMPO 2218/2224 19005KT SCT025 BKN100 BECMG 2301/2303 VRB03KT BECMG 2310/2312 17007KT